sensor_id;sensor_type;location;lat;lon;timestamp;P1;durP1;ratioP1;P2;durP2;ratioP2
13026;SDS011;6580;42.680;23.324;2023-07-31T00:01:38;4.43;;;2.97;;
13026;SDS011;6580;42.680;23.324;2023-07-31T00:04:27;3.60;;;3.30;;
13026;SDS011;6580;42.680;23.324;2023-07-31T00:07:13;2.97;;;2.78;;
13026;SDS011;6580;42.680;23.324;2023-07-31T00:10:02;3.08;;;2.88;;
13026;SDS011;6580;42.680;23.324;2023-07-31T00:12:50;3.25;;;2.95;;
13026;SDS011;6580;42.680;23.324;2023-07-31T00:15:36;3.50;;;3.25;;
13026;SDS011;6580;42.680;23.324;2023-07-31T00:18:22;3.33;;;3.03;;
13026;SDS011;6580;42.680;23.324;2023-07-31T00:21:10;3.88;;;3.20;;
13026;SDS011;6580;42.680;23.324;2023-07-31T00:23:56;3.90;;;3.50;;
13026;SDS011;6580;42.680;23.324;2023-07-31T00:26:41;3.10;;;2.85;;
13026;SDS011;6580;42.680;23.324;2023-07-31T00:29:30;3.35;;;3.08;;
13026;SDS011;6580;42.680;23.324;2023-07-31T00:32:16;3.65;;;3.35;;
13026;SDS011;6580;42.680;23.324;2023-07-31T00:35:02;3.83;;;3.53;;
13026;SDS011;6580;42.680;23.324;2023-07-31T00:37:50;3.63;;;3.33;;
13026;SDS011;6580;42.680;23.324;2023-07-31T00:40:37;3.67;;;3.38;;
13026;SDS011;6580;42.680;23.324;2023-07-31T00:43:24;3.30;;;3.00;;
13026;SDS011;6580;42.680;23.324;2023-07-31T00:46:11;3.60;;;3.33;;
13026;SDS011;6580;42.680;23.324;2023-07-31T00:48:58;3.60;;;3.40;;
13026;SDS011;6580;42.680;23.324;2023-07-31T00:51:44;4.20;;;3.90;;
13026;SDS011;6580;42.680;23.324;2023-07-31T00:54:31;4.47;;;4.07;;
13026;SDS011;6580;42.680;23.324;2023-07-31T00:57:16;5.15;;;4.75;;
13026;SDS011;6580;42.680;23.324;2023-07-31T01:00:03;6.15;;;5.18;;
13026;SDS011;6580;42.680;23.324;2023-07-31T01:02:59;6.75;;;6.15;;
13026;SDS011;6580;42.680;23.324;2023-07-31T01:05:49;5.50;;;5.00;;
13026;SDS011;6580;42.680;23.324;2023-07-31T01:08:42;5.65;;;5.15;;
13026;SDS011;6580;42.680;23.324;2023-07-31T01:11:42;5.30;;;4.80;;
13026;SDS011;6580;42.680;23.324;2023-07-31T01:14:35;6.32;;;5.50;;
13026;SDS011;6580;42.680;23.324;2023-07-31T01:17:23;6.82;;;6.22;;
13026;SDS011;6580;42.680;23.324;2023-07-31T01:20:12;7.00;;;6.30;;
13026;SDS011;6580;42.680;23.324;2023-07-31T01:23:23;7.18;;;6.47;;
13026;SDS011;6580;42.680;23.324;2023-07-31T01:26:44;7.80;;;7.07;;
13026;SDS011;6580;42.680;23.324;2023-07-31T01:29:34;7.55;;;6.85;;
13026;SDS011;6580;42.680;23.324;2023-07-31T01:32:23;7.95;;;7.20;;
13026;SDS011;6580;42.680;23.324;2023-07-31T01:35:12;8.23;;;7.43;;
13026;SDS011;6580;42.680;23.324;2023-07-31T01:37:58;9.63;;;8.15;;
13026;SDS011;6580;42.680;23.324;2023-07-31T01:40:43;8.57;;;7.68;;
13026;SDS011;6580;42.680;23.324;2023-07-31T01:43:32;9.18;;;8.32;;
13026;SDS011;6580;42.680;23.324;2023-07-31T01:46:20;11.65;;;10.55;;
13026;SDS011;6580;42.680;23.324;2023-07-31T01:49:06;11.18;;;9.93;;
13026;SDS011;6580;42.680;23.324;2023-07-31T01:51:52;11.55;;;10.48;;
13026;SDS011;6580;42.680;23.324;2023-07-31T01:54:37;11.55;;;10.32;;
13026;SDS011;6580;42.680;23.324;2023-07-31T01:57:23;11.57;;;10.45;;
13026;SDS011;6580;42.680;23.324;2023-07-31T02:00:10;11.82;;;10.70;;
13026;SDS011;6580;42.680;23.324;2023-07-31T02:03:04;12.68;;;11.38;;
13026;SDS011;6580;42.680;23.324;2023-07-31T02:05:51;12.68;;;11.38;;
13026;SDS011;6580;42.680;23.324;2023-07-31T02:08:37;13.00;;;11.70;;
13026;SDS011;6580;42.680;23.324;2023-07-31T02:11:25;12.38;;;11.07;;
13026;SDS011;6580;42.680;23.324;2023-07-31T02:14:10;13.55;;;12.15;;
13026;SDS011;6580;42.680;23.324;2023-07-31T02:17:02;13.23;;;11.80;;
13026;SDS011;6580;42.680;23.324;2023-07-31T02:19:49;13.10;;;11.77;;
13026;SDS011;6580;42.680;23.324;2023-07-31T02:22:35;13.07;;;11.77;;
13026;SDS011;6580;42.680;23.324;2023-07-31T02:25:21;12.68;;;11.43;;
13026;SDS011;6580;42.680;23.324;2023-07-31T02:28:07;12.55;;;11.20;;
13026;SDS011;6580;42.680;23.324;2023-07-31T02:30:53;12.82;;;11.55;;
13026;SDS011;6580;42.680;23.324;2023-07-31T02:33:40;12.50;;;11.20;;
13026;SDS011;6580;42.680;23.324;2023-07-31T02:36:25;13.32;;;12.05;;
13026;SDS011;6580;42.680;23.324;2023-07-31T02:39:11;13.00;;;11.05;;
13026;SDS011;6580;42.680;23.324;2023-07-31T02:41:58;14.02;;;12.57;;
13026;SDS011;6580;42.680;23.324;2023-07-31T02:44:46;16.17;;;12.90;;
13026;SDS011;6580;42.680;23.324;2023-07-31T02:47:34;14.25;;;12.73;;
13026;SDS011;6580;42.680;23.324;2023-07-31T02:50:26;14.88;;;12.38;;
13026;SDS011;6580;42.680;23.324;2023-07-31T02:53:12;13.40;;;12.10;;
13026;SDS011;6580;42.680;23.324;2023-07-31T02:55:58;14.07;;;12.68;;
13026;SDS011;6580;42.680;23.324;2023-07-31T02:58:47;12.32;;;11.07;;
13026;SDS011;6580;42.680;23.324;2023-07-31T03:01:33;13.20;;;11.80;;
13026;SDS011;6580;42.680;23.324;2023-07-31T03:04:18;13.60;;;12.20;;
13026;SDS011;6580;42.680;23.324;2023-07-31T03:07:05;13.10;;;11.70;;
13026;SDS011;6580;42.680;23.324;2023-07-31T03:09:51;13.57;;;12.18;;
13026;SDS011;6580;42.680;23.324;2023-07-31T03:12:37;13.48;;;12.13;;
13026;SDS011;6580;42.680;23.324;2023-07-31T03:15:22;13.20;;;11.90;;
13026;SDS011;6580;42.680;23.324;2023-07-31T03:18:08;14.63;;;12.20;;
13026;SDS011;6580;42.680;23.324;2023-07-31T03:20:55;12.85;;;11.55;;
13026;SDS011;6580;42.680;23.324;2023-07-31T03:23:41;12.60;;;11.40;;
13026;SDS011;6580;42.680;23.324;2023-07-31T03:26:28;14.50;;;12.93;;
13026;SDS011;6580;42.680;23.324;2023-07-31T03:29:20;13.52;;;12.18;;
13026;SDS011;6580;42.680;23.324;2023-07-31T03:32:06;13.52;;;12.23;;
13026;SDS011;6580;42.680;23.324;2023-07-31T03:34:53;14.18;;;12.77;;
13026;SDS011;6580;42.680;23.324;2023-07-31T03:37:42;13.82;;;12.40;;
13026;SDS011;6580;42.680;23.324;2023-07-31T03:40:29;14.98;;;13.05;;
13026;SDS011;6580;42.680;23.324;2023-07-31T03:43:15;14.40;;;12.40;;
13026;SDS011;6580;42.680;23.324;2023-07-31T03:46:02;15.40;;;13.40;;
13026;SDS011;6580;42.680;23.324;2023-07-31T03:48:48;13.68;;;12.30;;
13026;SDS011;6580;42.680;23.324;2023-07-31T03:51:34;14.02;;;12.27;;
13026;SDS011;6580;42.680;23.324;2023-07-31T03:54:24;14.90;;;13.20;;
13026;SDS011;6580;42.680;23.324;2023-07-31T03:57:15;14.80;;;12.40;;
13026;SDS011;6580;42.680;23.324;2023-07-31T04:00:10;14.18;;;12.35;;
13026;SDS011;6580;42.680;23.324;2023-07-31T04:02:58;14.85;;;12.02;;
13026;SDS011;6580;42.680;23.324;2023-07-31T04:05:55;14.20;;;12.70;;
13026;SDS011;6580;42.680;23.324;2023-07-31T04:08:41;16.42;;;13.07;;
13026;SDS011;6580;42.680;23.324;2023-07-31T04:11:27;16.65;;;13.38;;
13026;SDS011;6580;42.680;23.324;2023-07-31T04:14:17;15.02;;;12.75;;
13026;SDS011;6580;42.680;23.324;2023-07-31T04:17:05;16.02;;;13.05;;
13026;SDS011;6580;42.680;23.324;2023-07-31T04:19:51;16.17;;;13.30;;
13026;SDS011;6580;42.680;23.324;2023-07-31T04:22:36;15.25;;;13.50;;
13026;SDS011;6580;42.680;23.324;2023-07-31T04:25:23;16.23;;;12.95;;
13026;SDS011;6580;42.680;23.324;2023-07-31T04:28:09;14.73;;;12.93;;
13026;SDS011;6580;42.680;23.324;2023-07-31T04:30:57;14.35;;;12.82;;
13026;SDS011;6580;42.680;23.324;2023-07-31T04:33:58;14.82;;;12.95;;
13026;SDS011;6580;42.680;23.324;2023-07-31T04:36:47;15.23;;;12.90;;
13026;SDS011;6580;42.680;23.324;2023-07-31T04:39:39;15.25;;;13.65;;
13026;SDS011;6580;42.680;23.324;2023-07-31T04:42:28;14.80;;;13.13;;
13026;SDS011;6580;42.680;23.324;2023-07-31T04:45:15;15.73;;;13.07;;
13026;SDS011;6580;42.680;23.324;2023-07-31T04:48:04;14.18;;;12.43;;
13026;SDS011;6580;42.680;23.324;2023-07-31T04:50:50;14.13;;;12.63;;
13026;SDS011;6580;42.680;23.324;2023-07-31T04:53:36;14.77;;;12.48;;
13026;SDS011;6580;42.680;23.324;2023-07-31T04:56:22;14.25;;;12.68;;
13026;SDS011;6580;42.680;23.324;2023-07-31T04:59:10;13.85;;;12.35;;
13026;SDS011;6580;42.680;23.324;2023-07-31T05:01:56;15.65;;;13.18;;
13026;SDS011;6580;42.680;23.324;2023-07-31T05:04:45;14.23;;;12.45;;
13026;SDS011;6580;42.680;23.324;2023-07-31T05:07:34;12.70;;;11.40;;
13026;SDS011;6580;42.680;23.324;2023-07-31T05:10:19;13.05;;;11.63;;
13026;SDS011;6580;42.680;23.324;2023-07-31T05:13:06;14.15;;;12.63;;
13026;SDS011;6580;42.680;23.324;2023-07-31T05:15:52;13.30;;;11.40;;
13026;SDS011;6580;42.680;23.324;2023-07-31T05:18:37;13.30;;;11.95;;
13026;SDS011;6580;42.680;23.324;2023-07-31T05:21:28;11.85;;;10.70;;
13026;SDS011;6580;42.680;23.324;2023-07-31T05:24:16;11.50;;;10.38;;
13026;SDS011;6580;42.680;23.324;2023-07-31T05:27:02;10.93;;;9.77;;
13026;SDS011;6580;42.680;23.324;2023-07-31T05:29:48;12.50;;;10.55;;
13026;SDS011;6580;42.680;23.324;2023-07-31T05:32:35;9.88;;;8.88;;
13026;SDS011;6580;42.680;23.324;2023-07-31T05:35:21;9.60;;;8.70;;
13026;SDS011;6580;42.680;23.324;2023-07-31T05:38:11;9.70;;;8.70;;
13026;SDS011;6580;42.680;23.324;2023-07-31T05:41:14;9.90;;;8.90;;
13026;SDS011;6580;42.680;23.324;2023-07-31T05:44:00;10.65;;;7.75;;
13026;SDS011;6580;42.680;23.324;2023-07-31T05:46:49;8.70;;;7.90;;
13026;SDS011;6580;42.680;23.324;2023-07-31T05:49:35;7.30;;;6.70;;
13026;SDS011;6580;42.680;23.324;2023-07-31T05:52:20;7.05;;;6.35;;
13026;SDS011;6580;42.680;23.324;2023-07-31T05:55:09;6.63;;;6.03;;
13026;SDS011;6580;42.680;23.324;2023-07-31T05:57:56;6.97;;;6.38;;
13026;SDS011;6580;42.680;23.324;2023-07-31T06:00:45;6.60;;;6.00;;
13026;SDS011;6580;42.680;23.324;2023-07-31T06:03:30;6.63;;;6.03;;
13026;SDS011;6580;42.680;23.324;2023-07-31T06:06:17;6.97;;;6.38;;
13026;SDS011;6580;42.680;23.324;2023-07-31T06:09:04;5.95;;;5.45;;
13026;SDS011;6580;42.680;23.324;2023-07-31T06:11:54;5.68;;;5.18;;
13026;SDS011;6580;42.680;23.324;2023-07-31T06:14:40;5.60;;;5.10;;
13026;SDS011;6580;42.680;23.324;2023-07-31T06:17:25;5.32;;;4.82;;
13026;SDS011;6580;42.680;23.324;2023-07-31T06:20:11;5.22;;;4.72;;
13026;SDS011;6580;42.680;23.324;2023-07-31T06:22:57;5.03;;;4.60;;
13026;SDS011;6580;42.680;23.324;2023-07-31T06:25:44;4.68;;;4.28;;
13026;SDS011;6580;42.680;23.324;2023-07-31T06:28:31;5.28;;;4.78;;
13026;SDS011;6580;42.680;23.324;2023-07-31T06:31:18;4.20;;;3.90;;
13026;SDS011;6580;42.680;23.324;2023-07-31T06:34:06;3.70;;;3.47;;
13026;SDS011;6580;42.680;23.324;2023-07-31T06:36:53;4.53;;;4.10;;
13026;SDS011;6580;42.680;23.324;2023-07-31T06:39:39;3.88;;;3.40;;
13026;SDS011;6580;42.680;23.324;2023-07-31T06:42:24;4.13;;;3.83;;
13026;SDS011;6580;42.680;23.324;2023-07-31T06:45:20;4.50;;;4.10;;
13026;SDS011;6580;42.680;23.324;2023-07-31T06:48:06;3.45;;;3.13;;
13026;SDS011;6580;42.680;23.324;2023-07-31T06:50:52;3.90;;;3.60;;
13026;SDS011;6580;42.680;23.324;2023-07-31T06:53:38;3.88;;;3.58;;
13026;SDS011;6580;42.680;23.324;2023-07-31T06:56:24;5.13;;;3.83;;
13026;SDS011;6580;42.680;23.324;2023-07-31T06:59:09;4.07;;;3.38;;
13026;SDS011;6580;42.680;23.324;2023-07-31T07:01:57;3.50;;;3.20;;
13026;SDS011;6580;42.680;23.324;2023-07-31T07:04:43;4.50;;;3.53;;
13026;SDS011;6580;42.680;23.324;2023-07-31T07:07:30;3.65;;;3.42;;
13026;SDS011;6580;42.680;23.324;2023-07-31T07:10:16;3.88;;;3.58;;
13026;SDS011;6580;42.680;23.324;2023-07-31T07:13:05;3.72;;;3.42;;
13026;SDS011;6580;42.680;23.324;2023-07-31T07:15:51;3.60;;;3.30;;
13026;SDS011;6580;42.680;23.324;2023-07-31T07:18:41;3.40;;;3.10;;
13026;SDS011;6580;42.680;23.324;2023-07-31T07:21:26;5.57;;;4.97;;
13026;SDS011;6580;42.680;23.324;2023-07-31T07:24:12;3.83;;;3.47;;
13026;SDS011;6580;42.680;23.324;2023-07-31T07:26:57;4.28;;;3.88;;
13026;SDS011;6580;42.680;23.324;2023-07-31T07:29:43;3.80;;;3.50;;
13026;SDS011;6580;42.680;23.324;2023-07-31T07:32:28;6.18;;;5.63;;
13026;SDS011;6580;42.680;23.324;2023-07-31T07:35:16;4.50;;;3.22;;
13026;SDS011;6580;42.680;23.324;2023-07-31T07:38:01;6.43;;;5.60;;
13026;SDS011;6580;42.680;23.324;2023-07-31T07:40:47;5.13;;;4.63;;
13026;SDS011;6580;42.680;23.324;2023-07-31T07:43:34;3.90;;;3.50;;
13026;SDS011;6580;42.680;23.324;2023-07-31T07:46:21;3.70;;;3.40;;
13026;SDS011;6580;42.680;23.324;2023-07-31T07:49:11;4.68;;;3.70;;
13026;SDS011;6580;42.680;23.324;2023-07-31T07:51:58;4.57;;;3.40;;
13026;SDS011;6580;42.680;23.324;2023-07-31T07:54:44;3.50;;;3.20;;
13026;SDS011;6580;42.680;23.324;2023-07-31T07:57:30;4.38;;;3.20;;
13026;SDS011;6580;42.680;23.324;2023-07-31T08:00:19;3.05;;;2.75;;
13026;SDS011;6580;42.680;23.324;2023-07-31T08:03:04;2.97;;;2.78;;
13026;SDS011;6580;42.680;23.324;2023-07-31T08:05:51;4.22;;;3.55;;
13026;SDS011;6580;42.680;23.324;2023-07-31T08:08:38;3.20;;;2.90;;
13026;SDS011;6580;42.680;23.324;2023-07-31T08:11:25;3.50;;;3.20;;
13026;SDS011;6580;42.680;23.324;2023-07-31T08:14:10;3.85;;;3.20;;
13026;SDS011;6580;42.680;23.324;2023-07-31T08:16:56;3.53;;;3.15;;
13026;SDS011;6580;42.680;23.324;2023-07-31T08:19:42;3.75;;;3.35;;
13026;SDS011;6580;42.680;23.324;2023-07-31T08:22:27;3.45;;;3.13;;
13026;SDS011;6580;42.680;23.324;2023-07-31T08:25:14;3.10;;;2.80;;
13026;SDS011;6580;42.680;23.324;2023-07-31T08:28:00;3.08;;;2.88;;
13026;SDS011;6580;42.680;23.324;2023-07-31T08:30:45;3.50;;;3.20;;
13026;SDS011;6580;42.680;23.324;2023-07-31T08:33:34;3.45;;;2.97;;
13026;SDS011;6580;42.680;23.324;2023-07-31T08:36:20;2.95;;;2.75;;
13026;SDS011;6580;42.680;23.324;2023-07-31T08:39:05;3.10;;;2.72;;
13026;SDS011;6580;42.680;23.324;2023-07-31T08:41:53;3.22;;;2.88;;
13026;SDS011;6580;42.680;23.324;2023-07-31T08:44:43;2.88;;;2.42;;
13026;SDS011;6580;42.680;23.324;2023-07-31T08:47:29;5.03;;;3.10;;
13026;SDS011;6580;42.680;23.324;2023-07-31T08:50:16;2.97;;;2.78;;
13026;SDS011;6580;42.680;23.324;2023-07-31T08:53:02;4.25;;;2.92;;
13026;SDS011;6580;42.680;23.324;2023-07-31T08:55:50;3.42;;;3.13;;
13026;SDS011;6580;42.680;23.324;2023-07-31T08:58:46;3.90;;;3.50;;
13026;SDS011;6580;42.680;23.324;2023-07-31T09:01:40;3.13;;;2.92;;
13026;SDS011;6580;42.680;23.324;2023-07-31T09:04:33;2.80;;;2.60;;
13026;SDS011;6580;42.680;23.324;2023-07-31T09:07:19;2.97;;;2.78;;
13026;SDS011;6580;42.680;23.324;2023-07-31T09:10:06;3.72;;;3.42;;
13026;SDS011;6580;42.680;23.324;2023-07-31T09:12:53;3.60;;;3.30;;
13026;SDS011;6580;42.680;23.324;2023-07-31T09:15:42;3.88;;;2.97;;
13026;SDS011;6580;42.680;23.324;2023-07-31T09:18:31;2.70;;;2.50;;
13026;SDS011;6580;42.680;23.324;2023-07-31T09:21:16;2.80;;;2.58;;
13026;SDS011;6580;42.680;23.324;2023-07-31T09:24:02;2.80;;;2.60;;
13026;SDS011;6580;42.680;23.324;2023-07-31T09:26:50;3.53;;;2.97;;
13026;SDS011;6580;42.680;23.324;2023-07-31T09:29:42;3.17;;;2.88;;
13026;SDS011;6580;42.680;23.324;2023-07-31T09:32:29;3.15;;;2.95;;
13026;SDS011;6580;42.680;23.324;2023-07-31T09:35:18;3.13;;;2.83;;
13026;SDS011;6580;42.680;23.324;2023-07-31T09:38:06;3.50;;;3.20;;
13026;SDS011;6580;42.680;23.324;2023-07-31T09:40:56;3.83;;;3.42;;
13026;SDS011;6580;42.680;23.324;2023-07-31T09:43:52;2.83;;;2.63;;
13026;SDS011;6580;42.680;23.324;2023-07-31T09:46:40;3.00;;;2.80;;
13026;SDS011;6580;42.680;23.324;2023-07-31T09:49:28;3.13;;;2.92;;
13026;SDS011;6580;42.680;23.324;2023-07-31T09:52:14;3.28;;;2.90;;
13026;SDS011;6580;42.680;23.324;2023-07-31T09:55:00;2.90;;;2.70;;
13026;SDS011;6580;42.680;23.324;2023-07-31T09:57:48;2.53;;;2.33;;
13026;SDS011;6580;42.680;23.324;2023-07-31T10:00:35;2.20;;;2.10;;
13026;SDS011;6580;42.680;23.324;2023-07-31T10:03:22;2.70;;;2.50;;
13026;SDS011;6580;42.680;23.324;2023-07-31T10:06:10;3.42;;;3.08;;
13026;SDS011;6580;42.680;23.324;2023-07-31T10:08:56;2.60;;;2.40;;
13026;SDS011;6580;42.680;23.324;2023-07-31T10:11:45;3.05;;;2.85;;
13026;SDS011;6580;42.680;23.324;2023-07-31T10:14:35;2.70;;;2.50;;
13026;SDS011;6580;42.680;23.324;2023-07-31T10:17:24;3.80;;;3.50;;
13026;SDS011;6580;42.680;23.324;2023-07-31T10:20:13;2.33;;;2.17;;
13026;SDS011;6580;42.680;23.324;2023-07-31T10:23:01;4.28;;;2.80;;
13026;SDS011;6580;42.680;23.324;2023-07-31T10:25:48;2.50;;;2.30;;
13026;SDS011;6580;42.680;23.324;2023-07-31T10:28:36;3.67;;;2.72;;
13026;SDS011;6580;42.680;23.324;2023-07-31T10:31:24;2.83;;;2.63;;
13026;SDS011;6580;42.680;23.324;2023-07-31T10:34:10;2.45;;;2.35;;
13026;SDS011;6580;42.680;23.324;2023-07-31T10:40:09;2.60;;;2.40;;
13026;SDS011;6580;42.680;23.324;2023-07-31T10:42:56;2.40;;;2.20;;
13026;SDS011;6580;42.680;23.324;2023-07-31T10:45:42;2.20;;;2.10;;
13026;SDS011;6580;42.680;23.324;2023-07-31T10:48:29;2.30;;;2.20;;
13026;SDS011;6580;42.680;23.324;2023-07-31T10:51:20;2.50;;;2.30;;
13026;SDS011;6580;42.680;23.324;2023-07-31T10:54:10;2.50;;;2.30;;
13026;SDS011;6580;42.680;23.324;2023-07-31T10:56:57;3.38;;;2.15;;
13026;SDS011;6580;42.680;23.324;2023-07-31T10:59:44;4.18;;;2.20;;
13026;SDS011;6580;42.680;23.324;2023-07-31T11:02:30;5.82;;;2.20;;
13026;SDS011;6580;42.680;23.324;2023-07-31T11:05:18;2.03;;;1.92;;
13026;SDS011;6580;42.680;23.324;2023-07-31T11:08:10;2.20;;;1.83;;
13026;SDS011;6580;42.680;23.324;2023-07-31T11:11:04;1.95;;;1.85;;
13026;SDS011;6580;42.680;23.324;2023-07-31T11:13:53;2.47;;;1.98;;
13026;SDS011;6580;42.680;23.324;2023-07-31T11:16:41;2.25;;;2.15;;
13026;SDS011;6580;42.680;23.324;2023-07-31T11:19:27;1.95;;;1.85;;
13026;SDS011;6580;42.680;23.324;2023-07-31T11:22:13;3.92;;;2.33;;
13026;SDS011;6580;42.680;23.324;2023-07-31T11:24:59;3.30;;;3.00;;
13026;SDS011;6580;42.680;23.324;2023-07-31T11:27:45;2.80;;;2.47;;
13026;SDS011;6580;42.680;23.324;2023-07-31T11:30:32;2.20;;;2.03;;
13026;SDS011;6580;42.680;23.324;2023-07-31T11:33:20;2.47;;;2.28;;
13026;SDS011;6580;42.680;23.324;2023-07-31T11:36:06;2.40;;;2.20;;
13026;SDS011;6580;42.680;23.324;2023-07-31T11:38:54;2.03;;;1.92;;
13026;SDS011;6580;42.680;23.324;2023-07-31T11:41:50;3.25;;;2.53;;
13026;SDS011;6580;42.680;23.324;2023-07-31T11:44:38;2.95;;;2.65;;
13026;SDS011;6580;42.680;23.324;2023-07-31T11:47:33;4.47;;;2.70;;
13026;SDS011;6580;42.680;23.324;2023-07-31T11:50:20;2.90;;;2.70;;
13026;SDS011;6580;42.680;23.324;2023-07-31T11:53:08;2.70;;;2.50;;
13026;SDS011;6580;42.680;23.324;2023-07-31T11:55:57;2.28;;;2.08;;
13026;SDS011;6580;42.680;23.324;2023-07-31T11:58:49;2.67;;;2.47;;
13026;SDS011;6580;42.680;23.324;2023-07-31T12:01:37;3.10;;;2.80;;
13026;SDS011;6580;42.680;23.324;2023-07-31T12:04:26;4.25;;;3.92;;
13026;SDS011;6580;42.680;23.324;2023-07-31T12:07:14;3.13;;;2.88;;
13026;SDS011;6580;42.680;23.324;2023-07-31T12:10:01;3.33;;;3.03;;
13026;SDS011;6580;42.680;23.324;2023-07-31T12:12:55;3.58;;;3.28;;
13026;SDS011;6580;42.680;23.324;2023-07-31T12:15:47;3.22;;;3.03;;
13026;SDS011;6580;42.680;23.324;2023-07-31T12:18:36;3.67;;;3.30;;
13026;SDS011;6580;42.680;23.324;2023-07-31T12:21:27;3.92;;;3.63;;
13026;SDS011;6580;42.680;23.324;2023-07-31T12:24:12;4.88;;;4.38;;
13026;SDS011;6580;42.680;23.324;2023-07-31T12:26:58;5.03;;;4.63;;
13026;SDS011;6580;42.680;23.324;2023-07-31T12:29:44;4.93;;;4.50;;
13026;SDS011;6580;42.680;23.324;2023-07-31T12:32:31;4.40;;;4.10;;
13026;SDS011;6580;42.680;23.324;2023-07-31T12:35:16;4.60;;;4.20;;
13026;SDS011;6580;42.680;23.324;2023-07-31T12:38:12;3.97;;;3.67;;
13026;SDS011;6580;42.680;23.324;2023-07-31T12:41:00;4.05;;;3.75;;
13026;SDS011;6580;42.680;23.324;2023-07-31T12:43:45;3.83;;;3.53;;
13026;SDS011;6580;42.680;23.324;2023-07-31T12:46:31;3.70;;;3.40;;
13026;SDS011;6580;42.680;23.324;2023-07-31T12:49:16;4.10;;;3.60;;
13026;SDS011;6580;42.680;23.324;2023-07-31T12:52:02;3.92;;;3.63;;
13026;SDS011;6580;42.680;23.324;2023-07-31T12:54:52;4.90;;;4.50;;
13026;SDS011;6580;42.680;23.324;2023-07-31T12:57:39;6.22;;;5.07;;
13026;SDS011;6580;42.680;23.324;2023-07-31T13:00:25;4.63;;;4.22;;
13026;SDS011;6580;42.680;23.324;2023-07-31T13:03:11;4.53;;;4.18;;
13026;SDS011;6580;42.680;23.324;2023-07-31T13:06:03;4.93;;;4.53;;
13026;SDS011;6580;42.680;23.324;2023-07-31T13:08:49;4.35;;;4.00;;
13026;SDS011;6580;42.680;23.324;2023-07-31T13:11:36;6.00;;;5.00;;
13026;SDS011;6580;42.680;23.324;2023-07-31T13:14:24;5.30;;;4.80;;
13026;SDS011;6580;42.680;23.324;2023-07-31T13:17:09;4.80;;;4.40;;
13026;SDS011;6580;42.680;23.324;2023-07-31T13:19:55;5.30;;;4.80;;
13026;SDS011;6580;42.680;23.324;2023-07-31T13:22:40;4.97;;;4.57;;
13026;SDS011;6580;42.680;23.324;2023-07-31T13:25:26;4.45;;;4.05;;
13026;SDS011;6580;42.680;23.324;2023-07-31T13:28:13;4.50;;;4.20;;
13026;SDS011;6580;42.680;23.324;2023-07-31T13:31:07;4.22;;;3.67;;
13026;SDS011;6580;42.680;23.324;2023-07-31T13:33:55;4.30;;;3.95;;
13026;SDS011;6580;42.680;23.324;2023-07-31T13:36:41;4.00;;;3.55;;
13026;SDS011;6580;42.680;23.324;2023-07-31T13:39:28;4.50;;;3.75;;
13026;SDS011;6580;42.680;23.324;2023-07-31T13:42:14;4.15;;;3.85;;
13026;SDS011;6580;42.680;23.324;2023-07-31T13:45:01;3.88;;;3.58;;
13026;SDS011;6580;42.680;23.324;2023-07-31T13:47:47;4.15;;;3.72;;
13026;SDS011;6580;42.680;23.324;2023-07-31T13:50:33;4.20;;;3.80;;
13026;SDS011;6580;42.680;23.324;2023-07-31T13:53:19;8.05;;;7.25;;
13026;SDS011;6580;42.680;23.324;2023-07-31T13:56:06;5.70;;;5.20;;
13026;SDS011;6580;42.680;23.324;2023-07-31T13:58:51;9.23;;;7.35;;
13026;SDS011;6580;42.680;23.324;2023-07-31T14:01:38;4.82;;;4.43;;
13026;SDS011;6580;42.680;23.324;2023-07-31T14:04:23;4.38;;;3.78;;
13026;SDS011;6580;42.680;23.324;2023-07-31T14:07:09;3.92;;;3.60;;
13026;SDS011;6580;42.680;23.324;2023-07-31T14:09:55;3.63;;;3.33;;
13026;SDS011;6580;42.680;23.324;2023-07-31T14:12:41;3.65;;;3.35;;
13026;SDS011;6580;42.680;23.324;2023-07-31T14:15:27;4.65;;;3.83;;
13026;SDS011;6580;42.680;23.324;2023-07-31T14:18:14;4.05;;;3.75;;
13026;SDS011;6580;42.680;23.324;2023-07-31T14:20:59;4.38;;;3.90;;
13026;SDS011;6580;42.680;23.324;2023-07-31T14:23:45;4.50;;;4.10;;
13026;SDS011;6580;42.680;23.324;2023-07-31T14:26:31;3.72;;;3.45;;
13026;SDS011;6580;42.680;23.324;2023-07-31T14:29:17;4.07;;;3.78;;
13026;SDS011;6580;42.680;23.324;2023-07-31T14:32:02;3.65;;;3.35;;
13026;SDS011;6580;42.680;23.324;2023-07-31T14:34:49;3.92;;;3.60;;
13026;SDS011;6580;42.680;23.324;2023-07-31T14:37:38;3.45;;;3.15;;
13026;SDS011;6580;42.680;23.324;2023-07-31T14:40:26;3.53;;;3.22;;
13026;SDS011;6580;42.680;23.324;2023-07-31T14:43:13;4.22;;;3.92;;
13026;SDS011;6580;42.680;23.324;2023-07-31T14:45:59;3.75;;;3.45;;
13026;SDS011;6580;42.680;23.324;2023-07-31T14:48:46;4.20;;;3.88;;
13026;SDS011;6580;42.680;23.324;2023-07-31T14:51:34;4.18;;;3.78;;
13026;SDS011;6580;42.680;23.324;2023-07-31T14:54:19;3.67;;;3.42;;
13026;SDS011;6580;42.680;23.324;2023-07-31T14:57:07;4.80;;;4.18;;
13026;SDS011;6580;42.680;23.324;2023-07-31T14:59:54;3.50;;;3.30;;
13026;SDS011;6580;42.680;23.324;2023-07-31T15:02:40;3.67;;;3.38;;
13026;SDS011;6580;42.680;23.324;2023-07-31T15:05:29;3.97;;;3.67;;
13026;SDS011;6580;42.680;23.324;2023-07-31T15:08:16;3.85;;;3.55;;
13026;SDS011;6580;42.680;23.324;2023-07-31T15:11:03;3.50;;;3.15;;
13026;SDS011;6580;42.680;23.324;2023-07-31T15:13:51;3.72;;;3.42;;
13026;SDS011;6580;42.680;23.324;2023-07-31T15:16:36;3.38;;;3.08;;
13026;SDS011;6580;42.680;23.324;2023-07-31T15:19:24;3.08;;;2.88;;
13026;SDS011;6580;42.680;23.324;2023-07-31T15:22:11;3.40;;;2.80;;
13026;SDS011;6580;42.680;23.324;2023-07-31T15:24:58;3.03;;;2.83;;
13026;SDS011;6580;42.680;23.324;2023-07-31T15:27:44;3.05;;;2.85;;
13026;SDS011;6580;42.680;23.324;2023-07-31T15:30:30;4.63;;;3.53;;
13026;SDS011;6580;42.680;23.324;2023-07-31T15:33:16;2.90;;;2.70;;
13026;SDS011;6580;42.680;23.324;2023-07-31T15:36:02;3.47;;;3.10;;
13026;SDS011;6580;42.680;23.324;2023-07-31T15:38:47;4.90;;;3.60;;
13026;SDS011;6580;42.680;23.324;2023-07-31T15:41:40;5.22;;;3.47;;
13026;SDS011;6580;42.680;23.324;2023-07-31T15:44:27;2.90;;;2.70;;
13026;SDS011;6580;42.680;23.324;2023-07-31T15:47:13;3.28;;;2.97;;
13026;SDS011;6580;42.680;23.324;2023-07-31T15:49:59;3.28;;;2.67;;
13026;SDS011;6580;42.680;23.324;2023-07-31T15:52:46;2.67;;;2.47;;
13026;SDS011;6580;42.680;23.324;2023-07-31T15:55:33;2.75;;;2.55;;
13026;SDS011;6580;42.680;23.324;2023-07-31T15:58:23;3.10;;;2.80;;
13026;SDS011;6580;42.680;23.324;2023-07-31T16:01:09;2.42;;;2.33;;
13026;SDS011;6580;42.680;23.324;2023-07-31T16:03:57;3.05;;;2.22;;
13026;SDS011;6580;42.680;23.324;2023-07-31T16:06:44;3.00;;;2.20;;
13026;SDS011;6580;42.680;23.324;2023-07-31T16:09:30;2.53;;;2.33;;
13026;SDS011;6580;42.680;23.324;2023-07-31T16:12:16;3.08;;;2.78;;
13026;SDS011;6580;42.680;23.324;2023-07-31T16:15:08;3.67;;;2.95;;
13026;SDS011;6580;42.680;23.324;2023-07-31T16:17:56;2.58;;;2.30;;
13026;SDS011;6580;42.680;23.324;2023-07-31T16:20:43;2.47;;;2.28;;
13026;SDS011;6580;42.680;23.324;2023-07-31T16:23:29;2.10;;;2.00;;
13026;SDS011;6580;42.680;23.324;2023-07-31T16:26:15;6.65;;;5.90;;
13026;SDS011;6580;42.680;23.324;2023-07-31T16:29:02;4.20;;;3.80;;
13026;SDS011;6580;42.680;23.324;2023-07-31T16:31:50;8.40;;;7.40;;
13026;SDS011;6580;42.680;23.324;2023-07-31T16:34:37;5.15;;;4.07;;
13026;SDS011;6580;42.680;23.324;2023-07-31T16:37:25;2.67;;;2.47;;
13026;SDS011;6580;42.680;23.324;2023-07-31T16:40:12;3.60;;;3.30;;
13026;SDS011;6580;42.680;23.324;2023-07-31T16:42:58;2.50;;;2.30;;
13026;SDS011;6580;42.680;23.324;2023-07-31T16:45:45;2.42;;;2.22;;